sensor_id;sensor_type;location;lat;lon;timestamp;pressure;altitude;pressure_sealevel;temperature
33877;BMP180;20166;51.738;7.158;2024-01-30T00:02:23;102155.00;;;5.70
33877;BMP180;20166;51.738;7.158;2024-01-30T00:05:10;102158.00;;;5.70
33877;BMP180;20166;51.738;7.158;2024-01-30T00:07:56;102150.00;;;5.80
33877;BMP180;20166;51.738;7.158;2024-01-30T00:10:44;102153.00;;;5.80
33877;BMP180;20166;51.738;7.158;2024-01-30T00:13:30;102150.00;;;5.70
33877;BMP180;20166;51.738;7.158;2024-01-30T00:16:20;102145.00;;;5.70
33877;BMP180;20166;51.738;7.158;2024-01-30T00:19:06;102150.00;;;5.70
33877;BMP180;20166;51.738;7.158;2024-01-30T00:21:53;102142.00;;;5.70
33877;BMP180;20166;51.738;7.158;2024-01-30T00:24:39;102152.00;;;5.70
33877;BMP180;20166;51.738;7.158;2024-01-30T00:27:27;102152.00;;;5.70
33877;BMP180;20166;51.738;7.158;2024-01-30T00:30:14;102147.00;;;5.70
33877;BMP180;20166;51.738;7.158;2024-01-30T00:33:01;102146.00;;;5.70
33877;BMP180;20166;51.738;7.158;2024-01-30T00:35:47;102148.00;;;5.70
33877;BMP180;20166;51.738;7.158;2024-01-30T00:38:33;102142.00;;;5.70
33877;BMP180;20166;51.738;7.158;2024-01-30T00:41:19;102141.00;;;5.70
33877;BMP180;20166;51.738;7.158;2024-01-30T00:44:07;102136.00;;;5.70
33877;BMP180;20166;51.738;7.158;2024-01-30T00:46:54;102147.00;;;5.60
33877;BMP180;20166;51.738;7.158;2024-01-30T00:49:40;102137.00;;;5.60
33877;BMP180;20166;51.738;7.158;2024-01-30T00:52:27;102141.00;;;5.60
33877;BMP180;20166;51.738;7.158;2024-01-30T00:55:13;102129.00;;;5.60
33877;BMP180;20166;51.738;7.158;2024-01-30T00:58:00;102142.00;;;5.60
33877;BMP180;20166;51.738;7.158;2024-01-30T01:00:47;102128.00;;;5.50
33877;BMP180;20166;51.738;7.158;2024-01-30T01:03:34;102137.00;;;5.50
33877;BMP180;20166;51.738;7.158;2024-01-30T01:06:20;102133.00;;;5.50
33877;BMP180;20166;51.738;7.158;2024-01-30T01:09:06;102131.00;;;5.50
33877;BMP180;20166;51.738;7.158;2024-01-30T01:11:53;102135.00;;;5.50
33877;BMP180;20166;51.738;7.158;2024-01-30T01:14:39;102126.00;;;5.50
33877;BMP180;20166;51.738;7.158;2024-01-30T01:17:26;102130.00;;;5.50
33877;BMP180;20166;51.738;7.158;2024-01-30T01:20:13;102131.00;;;5.50
33877;BMP180;20166;51.738;7.158;2024-01-30T01:22:59;102134.00;;;5.50
33877;BMP180;20166;51.738;7.158;2024-01-30T01:25:45;102130.00;;;5.50
33877;BMP180;20166;51.738;7.158;2024-01-30T01:28:31;102140.00;;;5.50
33877;BMP180;20166;51.738;7.158;2024-01-30T01:31:18;102125.00;;;5.50
33877;BMP180;20166;51.738;7.158;2024-01-30T01:34:06;102136.00;;;5.50
33877;BMP180;20166;51.738;7.158;2024-01-30T01:36:52;102129.00;;;5.50
33877;BMP180;20166;51.738;7.158;2024-01-30T01:39:40;102128.00;;;5.60
33877;BMP180;20166;51.738;7.158;2024-01-30T01:42:26;102131.00;;;5.50
33877;BMP180;20166;51.738;7.158;2024-01-30T01:45:12;102133.00;;;5.50
33877;BMP180;20166;51.738;7.158;2024-01-30T01:48:01;102118.00;;;5.50
33877;BMP180;20166;51.738;7.158;2024-01-30T01:50:48;102120.00;;;5.50
33877;BMP180;20166;51.738;7.158;2024-01-30T01:53:35;102132.00;;;5.50
33877;BMP180;20166;51.738;7.158;2024-01-30T01:56:22;102106.00;;;5.50
33877;BMP180;20166;51.738;7.158;2024-01-30T01:59:08;102112.00;;;5.50
33877;BMP180;20166;51.738;7.158;2024-01-30T02:01:57;102113.00;;;5.50
33877;BMP180;20166;51.738;7.158;2024-01-30T02:04:44;102113.00;;;5.50
33877;BMP180;20166;51.738;7.158;2024-01-30T02:07:32;102109.00;;;5.50
33877;BMP180;20166;51.738;7.158;2024-01-30T02:10:18;102111.00;;;5.50
33877;BMP180;20166;51.738;7.158;2024-01-30T02:13:04;102102.00;;;5.50
33877;BMP180;20166;51.738;7.158;2024-01-30T02:15:51;102100.00;;;5.60
33877;BMP180;20166;51.738;7.158;2024-01-30T02:18:37;102100.00;;;5.60
33877;BMP180;20166;51.738;7.158;2024-01-30T02:21:29;102087.00;;;5.60
33877;BMP180;20166;51.738;7.158;2024-01-30T02:24:16;102104.00;;;5.50
33877;BMP180;20166;51.738;7.158;2024-01-30T02:27:02;102086.00;;;5.60
33877;BMP180;20166;51.738;7.158;2024-01-30T02:29:49;102083.00;;;5.50
33877;BMP180;20166;51.738;7.158;2024-01-30T02:32:35;102095.00;;;5.50
33877;BMP180;20166;51.738;7.158;2024-01-30T02:35:21;102087.00;;;5.50
33877;BMP180;20166;51.738;7.158;2024-01-30T02:38:09;102077.00;;;5.50
33877;BMP180;20166;51.738;7.158;2024-01-30T02:40:55;102077.00;;;5.50
33877;BMP180;20166;51.738;7.158;2024-01-30T02:43:41;102080.00;;;5.40
33877;BMP180;20166;51.738;7.158;2024-01-30T02:46:27;102074.00;;;5.50
33877;BMP180;20166;51.738;7.158;2024-01-30T02:49:14;102067.00;;;5.40
33877;BMP180;20166;51.738;7.158;2024-01-30T02:52:00;102074.00;;;5.40
33877;BMP180;20166;51.738;7.158;2024-01-30T02:54:47;102061.00;;;5.40
33877;BMP180;20166;51.738;7.158;2024-01-30T02:57:34;102067.00;;;5.40
33877;BMP180;20166;51.738;7.158;2024-01-30T03:00:20;102059.00;;;5.40
33877;BMP180;20166;51.738;7.158;2024-01-30T03:03:06;102054.00;;;5.30
33877;BMP180;20166;51.738;7.158;2024-01-30T03:05:53;102057.00;;;5.30
33877;BMP180;20166;51.738;7.158;2024-01-30T03:08:39;102057.00;;;5.30
33877;BMP180;20166;51.738;7.158;2024-01-30T03:11:27;102053.00;;;5.30
33877;BMP180;20166;51.738;7.158;2024-01-30T03:14:13;102054.00;;;5.20
33877;BMP180;20166;51.738;7.158;2024-01-30T03:16:59;102053.00;;;5.20
33877;BMP180;20166;51.738;7.158;2024-01-30T03:19:45;102050.00;;;5.20
33877;BMP180;20166;51.738;7.158;2024-01-30T03:22:32;102042.00;;;5.10
33877;BMP180;20166;51.738;7.158;2024-01-30T03:25:18;102045.00;;;5.10
33877;BMP180;20166;51.738;7.158;2024-01-30T03:28:05;102047.00;;;5.10
33877;BMP180;20166;51.738;7.158;2024-01-30T03:30:52;102050.00;;;5.10
33877;BMP180;20166;51.738;7.158;2024-01-30T03:33:38;102051.00;;;5.10
33877;BMP180;20166;51.738;7.158;2024-01-30T03:36:24;102038.00;;;5.10
33877;BMP180;20166;51.738;7.158;2024-01-30T03:39:11;102043.00;;;5.10
33877;BMP180;20166;51.738;7.158;2024-01-30T03:41:57;102043.00;;;5.10
33877;BMP180;20166;51.738;7.158;2024-01-30T03:44:44;102032.00;;;5.20
33877;BMP180;20166;51.738;7.158;2024-01-30T03:47:30;102035.00;;;5.10
33877;BMP180;20166;51.738;7.158;2024-01-30T03:50:17;102023.00;;;5.20
33877;BMP180;20166;51.738;7.158;2024-01-30T03:53:03;102025.00;;;5.20
33877;BMP180;20166;51.738;7.158;2024-01-30T03:55:50;102023.00;;;5.20
33877;BMP180;20166;51.738;7.158;2024-01-30T03:58:36;102022.00;;;5.20
33877;BMP180;20166;51.738;7.158;2024-01-30T04:01:24;102021.00;;;5.20
33877;BMP180;20166;51.738;7.158;2024-01-30T04:04:10;102019.00;;;5.30
33877;BMP180;20166;51.738;7.158;2024-01-30T04:06:57;102030.00;;;5.30
33877;BMP180;20166;51.738;7.158;2024-01-30T04:09:43;102016.00;;;5.40
33877;BMP180;20166;51.738;7.158;2024-01-30T04:12:29;102015.00;;;5.30
33877;BMP180;20166;51.738;7.158;2024-01-30T04:15:16;102010.00;;;5.30
33877;BMP180;20166;51.738;7.158;2024-01-30T04:18:04;102007.00;;;5.40
33877;BMP180;20166;51.738;7.158;2024-01-30T04:20:50;102010.00;;;5.40
33877;BMP180;20166;51.738;7.158;2024-01-30T04:23:36;102005.00;;;5.40
33877;BMP180;20166;51.738;7.158;2024-01-30T04:26:23;101997.00;;;5.40
33877;BMP180;20166;51.738;7.158;2024-01-30T04:29:09;102002.00;;;5.50
33877;BMP180;20166;51.738;7.158;2024-01-30T04:31:55;101994.00;;;5.50
33877;BMP180;20166;51.738;7.158;2024-01-30T04:34:43;101993.00;;;5.60
33877;BMP180;20166;51.738;7.158;2024-01-30T04:37:30;102000.00;;;5.50
33877;BMP180;20166;51.738;7.158;2024-01-30T04:40:16;102001.00;;;5.60
33877;BMP180;20166;51.738;7.158;2024-01-30T04:43:03;102006.00;;;5.60
33877;BMP180;20166;51.738;7.158;2024-01-30T04:45:49;101994.00;;;5.60
33877;BMP180;20166;51.738;7.158;2024-01-30T04:48:36;101998.00;;;5.60
33877;BMP180;20166;51.738;7.158;2024-01-30T04:51:24;101997.00;;;5.60
33877;BMP180;20166;51.738;7.158;2024-01-30T04:54:10;101997.00;;;5.50
33877;BMP180;20166;51.738;7.158;2024-01-30T04:56:56;102000.00;;;5.60
33877;BMP180;20166;51.738;7.158;2024-01-30T04:59:43;102000.00;;;5.50
33877;BMP180;20166;51.738;7.158;2024-01-30T05:02:30;101997.00;;;5.50
33877;BMP180;20166;51.738;7.158;2024-01-30T05:05:16;101987.00;;;5.50
33877;BMP180;20166;51.738;7.158;2024-01-30T05:08:04;101985.00;;;5.50
33877;BMP180;20166;51.738;7.158;2024-01-30T05:10:50;101995.00;;;5.60
33877;BMP180;20166;51.738;7.158;2024-01-30T05:13:37;102007.00;;;5.60
33877;BMP180;20166;51.738;7.158;2024-01-30T05:16:23;101999.00;;;5.70
33877;BMP180;20166;51.738;7.158;2024-01-30T05:19:09;101996.00;;;5.70
33877;BMP180;20166;51.738;7.158;2024-01-30T05:21:56;101996.00;;;5.60
33877;BMP180;20166;51.738;7.158;2024-01-30T05:24:44;101989.00;;;5.60
33877;BMP180;20166;51.738;7.158;2024-01-30T05:27:30;101987.00;;;5.70
33877;BMP180;20166;51.738;7.158;2024-01-30T05:30:16;101991.00;;;5.60
33877;BMP180;20166;51.738;7.158;2024-01-30T05:33:03;101985.00;;;5.70
33877;BMP180;20166;51.738;7.158;2024-01-30T05:35:49;101988.00;;;5.70
33877;BMP180;20166;51.738;7.158;2024-01-30T05:38:39;102000.00;;;5.70
33877;BMP180;20166;51.738;7.158;2024-01-30T05:41:26;101993.00;;;5.70
33877;BMP180;20166;51.738;7.158;2024-01-30T05:44:13;101996.00;;;5.70
33877;BMP180;20166;51.738;7.158;2024-01-30T05:46:59;101998.00;;;5.80
33877;BMP180;20166;51.738;7.158;2024-01-30T05:49:46;101991.00;;;5.70
33877;BMP180;20166;51.738;7.158;2024-01-30T05:52:32;101989.00;;;5.70
33877;BMP180;20166;51.738;7.158;2024-01-30T05:55:19;101988.00;;;5.70
33877;BMP180;20166;51.738;7.158;2024-01-30T05:58:06;101976.00;;;5.70
33877;BMP180;20166;51.738;7.158;2024-01-30T06:00:53;101980.00;;;5.70
33877;BMP180;20166;51.738;7.158;2024-01-30T06:03:39;101981.00;;;5.70
33877;BMP180;20166;51.738;7.158;2024-01-30T06:06:26;101982.00;;;5.80
33877;BMP180;20166;51.738;7.158;2024-01-30T06:09:12;101990.00;;;5.80
33877;BMP180;20166;51.738;7.158;2024-01-30T06:11:58;101986.00;;;5.80
33877;BMP180;20166;51.738;7.158;2024-01-30T06:14:46;101996.00;;;5.80
33877;BMP180;20166;51.738;7.158;2024-01-30T06:17:32;101992.00;;;5.80
33877;BMP180;20166;51.738;7.158;2024-01-30T06:20:19;101999.00;;;5.80
33877;BMP180;20166;51.738;7.158;2024-01-30T06:23:05;101996.00;;;5.80
33877;BMP180;20166;51.738;7.158;2024-01-30T06:25:52;101996.00;;;5.80
33877;BMP180;20166;51.738;7.158;2024-01-30T06:28:38;102000.00;;;5.90
33877;BMP180;20166;51.738;7.158;2024-01-30T06:31:26;101981.00;;;5.90
33877;BMP180;20166;51.738;7.158;2024-01-30T06:34:12;101988.00;;;5.90
33877;BMP180;20166;51.738;7.158;2024-01-30T06:36:59;101991.00;;;6.00
33877;BMP180;20166;51.738;7.158;2024-01-30T06:39:45;101994.00;;;6.00
33877;BMP180;20166;51.738;7.158;2024-01-30T06:42:31;101993.00;;;6.10
33877;BMP180;20166;51.738;7.158;2024-01-30T06:45:18;101996.00;;;6.10
33877;BMP180;20166;51.738;7.158;2024-01-30T06:48:07;101985.00;;;6.10
33877;BMP180;20166;51.738;7.158;2024-01-30T06:50:53;101991.00;;;6.20
33877;BMP180;20166;51.738;7.158;2024-01-30T06:53:40;101996.00;;;6.20
33877;BMP180;20166;51.738;7.158;2024-01-30T06:56:26;101996.00;;;6.20
33877;BMP180;20166;51.738;7.158;2024-01-30T06:59:12;101987.00;;;6.30
33877;BMP180;20166;51.738;7.158;2024-01-30T07:01:58;101996.00;;;6.30
33877;BMP180;20166;51.738;7.158;2024-01-30T07:04:46;101998.00;;;6.30
33877;BMP180;20166;51.738;7.158;2024-01-30T07:07:33;101990.00;;;6.30
33877;BMP180;20166;51.738;7.158;2024-01-30T07:10:19;101998.00;;;6.40
33877;BMP180;20166;51.738;7.158;2024-01-30T07:13:05;101997.00;;;6.40
33877;BMP180;20166;51.738;7.158;2024-01-30T07:15:54;101993.00;;;6.40
33877;BMP180;20166;51.738;7.158;2024-01-30T07:18:40;101998.00;;;6.40
33877;BMP180;20166;51.738;7.158;2024-01-30T07:21:27;101997.00;;;6.50
33877;BMP180;20166;51.738;7.158;2024-01-30T07:24:14;101998.00;;;6.50
33877;BMP180;20166;51.738;7.158;2024-01-30T07:27:00;101999.00;;;6.60
33877;BMP180;20166;51.738;7.158;2024-01-30T07:29:47;102006.00;;;6.50
33877;BMP180;20166;51.738;7.158;2024-01-30T07:32:35;102009.00;;;6.60
33877;BMP180;20166;51.738;7.158;2024-01-30T07:35:21;102007.00;;;6.60
33877;BMP180;20166;51.738;7.158;2024-01-30T07:38:09;102023.00;;;6.80
33877;BMP180;20166;51.738;7.158;2024-01-30T07:40:56;102018.00;;;6.80
33877;BMP180;20166;51.738;7.158;2024-01-30T07:43:43;102008.00;;;6.80
33877;BMP180;20166;51.738;7.158;2024-01-30T07:46:29;102019.00;;;6.90
33877;BMP180;20166;51.738;7.158;2024-01-30T07:49:16;102014.00;;;6.90
33877;BMP180;20166;51.738;7.158;2024-01-30T07:52:05;102016.00;;;6.90
33877;BMP180;20166;51.738;7.158;2024-01-30T07:54:53;102013.00;;;7.00
33877;BMP180;20166;51.738;7.158;2024-01-30T07:57:40;102006.00;;;7.10
33877;BMP180;20166;51.738;7.158;2024-01-30T08:00:28;102023.00;;;7.10
33877;BMP180;20166;51.738;7.158;2024-01-30T08:03:14;102021.00;;;7.20
33877;BMP180;20166;51.738;7.158;2024-01-30T08:06:01;102016.00;;;7.20
33877;BMP180;20166;51.738;7.158;2024-01-30T08:08:48;102033.00;;;7.20
33877;BMP180;20166;51.738;7.158;2024-01-30T08:11:36;102037.00;;;7.40
33877;BMP180;20166;51.738;7.158;2024-01-30T08:14:22;102036.00;;;7.50
33877;BMP180;20166;51.738;7.158;2024-01-30T08:17:09;102024.00;;;7.60
33877;BMP180;20166;51.738;7.158;2024-01-30T08:19:55;102035.00;;;7.80
33877;BMP180;20166;51.738;7.158;2024-01-30T08:22:42;102030.00;;;7.80
33877;BMP180;20166;51.738;7.158;2024-01-30T08:25:29;102038.00;;;8.00
33877;BMP180;20166;51.738;7.158;2024-01-30T08:28:17;102034.00;;;8.10
33877;BMP180;20166;51.738;7.158;2024-01-30T08:31:05;102037.00;;;8.20
33877;BMP180;20166;51.738;7.158;2024-01-30T08:33:52;102048.00;;;8.20
33877;BMP180;20166;51.738;7.158;2024-01-30T08:36:38;102047.00;;;8.30
33877;BMP180;20166;51.738;7.158;2024-01-30T08:39:25;102046.00;;;8.40
33877;BMP180;20166;51.738;7.158;2024-01-30T08:42:11;102044.00;;;8.40
33877;BMP180;20166;51.738;7.158;2024-01-30T08:44:59;102041.00;;;8.50
33877;BMP180;20166;51.738;7.158;2024-01-30T08:47:45;102043.00;;;8.60
33877;BMP180;20166;51.738;7.158;2024-01-30T08:50:31;102041.00;;;8.70
33877;BMP180;20166;51.738;7.158;2024-01-30T08:53:17;102039.00;;;8.70
33877;BMP180;20166;51.738;7.158;2024-01-30T08:56:06;102037.00;;;8.80
33877;BMP180;20166;51.738;7.158;2024-01-30T08:58:53;102045.00;;;8.80
33877;BMP180;20166;51.738;7.158;2024-01-30T09:01:40;102051.00;;;8.80
33877;BMP180;20166;51.738;7.158;2024-01-30T09:04:39;102051.00;;;8.70
33877;BMP180;20166;51.738;7.158;2024-01-30T09:07:26;102049.00;;;8.70
33877;BMP180;20166;51.738;7.158;2024-01-30T09:10:12;102049.00;;;8.70
33877;BMP180;20166;51.738;7.158;2024-01-30T09:13:01;102054.00;;;8.80
33877;BMP180;20166;51.738;7.158;2024-01-30T09:15:47;102048.00;;;8.80
33877;BMP180;20166;51.738;7.158;2024-01-30T09:18:35;102057.00;;;8.80
33877;BMP180;20166;51.738;7.158;2024-01-30T09:21:21;102062.00;;;8.90
33877;BMP180;20166;51.738;7.158;2024-01-30T09:24:08;102065.00;;;8.80
33877;BMP180;20166;51.738;7.158;2024-01-30T09:26:54;102072.00;;;8.80
33877;BMP180;20166;51.738;7.158;2024-01-30T09:29:40;102072.00;;;8.80
33877;BMP180;20166;51.738;7.158;2024-01-30T09:32:27;102080.00;;;8.80
33877;BMP180;20166;51.738;7.158;2024-01-30T09:35:15;102083.00;;;8.80
33877;BMP180;20166;51.738;7.158;2024-01-30T09:38:02;102082.00;;;8.90
33877;BMP180;20166;51.738;7.158;2024-01-30T09:40:53;102079.00;;;8.90
33877;BMP180;20166;51.738;7.158;2024-01-30T09:43:39;102088.00;;;9.00
33877;BMP180;20166;51.738;7.158;2024-01-30T09:46:27;102076.00;;;9.10
33877;BMP180;20166;51.738;7.158;2024-01-30T09:49:14;102074.00;;;9.20
33877;BMP180;20166;51.738;7.158;2024-01-30T09:52:06;102070.00;;;9.30
33877;BMP180;20166;51.738;7.158;2024-01-30T09:54:54;102071.00;;;9.40
33877;BMP180;20166;51.738;7.158;2024-01-30T09:57:41;102072.00;;;9.50
33877;BMP180;20166;51.738;7.158;2024-01-30T10:00:28;102066.00;;;9.60
33877;BMP180;20166;51.738;7.158;2024-01-30T10:03:14;102057.00;;;9.70
33877;BMP180;20166;51.738;7.158;2024-01-30T10:06:01;102061.00;;;9.90
33877;BMP180;20166;51.738;7.158;2024-01-30T10:08:49;102047.00;;;10.10
33877;BMP180;20166;51.738;7.158;2024-01-30T10:11:36;102051.00;;;10.30
33877;BMP180;20166;51.738;7.158;2024-01-30T10:14:22;102061.00;;;10.40
33877;BMP180;20166;51.738;7.158;2024-01-30T10:17:09;102062.00;;;10.50
33877;BMP180;20166;51.738;7.158;2024-01-30T10:20:09;102056.00;;;10.70
33877;BMP180;20166;51.738;7.158;2024-01-30T10:22:57;102060.00;;;10.80
33877;BMP180;20166;51.738;7.158;2024-01-30T10:25:45;102066.00;;;10.90
33877;BMP180;20166;51.738;7.158;2024-01-30T10:28:31;102066.00;;;11.10
33877;BMP180;20166;51.738;7.158;2024-01-30T10:31:17;102065.00;;;11.20
33877;BMP180;20166;51.738;7.158;2024-01-30T10:34:04;102069.00;;;11.30
33877;BMP180;20166;51.738;7.158;2024-01-30T10:37:07;102077.00;;;11.40
33877;BMP180;20166;51.738;7.158;2024-01-30T10:40:02;102067.00;;;11.50
33877;BMP180;20166;51.738;7.158;2024-01-30T10:42:53;102064.00;;;11.60
33877;BMP180;20166;51.738;7.158;2024-01-30T10:45:44;102068.00;;;11.80
33877;BMP180;20166;51.738;7.158;2024-01-30T10:48:36;102065.00;;;11.90
33877;BMP180;20166;51.738;7.158;2024-01-30T10:51:26;102068.00;;;12.00
33877;BMP180;20166;51.738;7.158;2024-01-30T10:54:13;102071.00;;;12.00
33877;BMP180;20166;51.738;7.158;2024-01-30T10:57:00;102069.00;;;12.00
33877;BMP180;20166;51.738;7.158;2024-01-30T10:59:49;102078.00;;;12.00
33877;BMP180;20166;51.738;7.158;2024-01-30T11:02:38;102073.00;;;11.90
33877;BMP180;20166;51.738;7.158;2024-01-30T11:05:27;102085.00;;;11.80
33877;BMP180;20166;51.738;7.158;2024-01-30T11:08:23;102070.00;;;11.80
33877;BMP180;20166;51.738;7.158;2024-01-30T11:11:10;102074.00;;;11.80
33877;BMP180;20166;51.738;7.158;2024-01-30T11:14:00;102069.00;;;11.80
33877;BMP180;20166;51.738;7.158;2024-01-30T11:16:48;102067.00;;;11.80
33877;BMP180;20166;51.738;7.158;2024-01-30T11:19:35;102075.00;;;11.90
33877;BMP180;20166;51.738;7.158;2024-01-30T11:22:22;102077.00;;;11.90
33877;BMP180;20166;51.738;7.158;2024-01-30T11:25:11;102083.00;;;11.80
33877;BMP180;20166;51.738;7.158;2024-01-30T11:27:57;102075.00;;;11.80
33877;BMP180;20166;51.738;7.158;2024-01-30T11:30:44;102074.00;;;11.80
33877;BMP180;20166;51.738;7.158;2024-01-30T11:33:33;102084.00;;;11.70
33877;BMP180;20166;51.738;7.158;2024-01-30T11:36:25;102079.00;;;11.80
33877;BMP180;20166;51.738;7.158;2024-01-30T11:39:13;102088.00;;;11.80
33877;BMP180;20166;51.738;7.158;2024-01-30T11:42:03;102083.00;;;11.80
33877;BMP180;20166;51.738;7.158;2024-01-30T11:44:50;102087.00;;;11.80
33877;BMP180;20166;51.738;7.158;2024-01-30T11:47:37;102088.00;;;11.80
33877;BMP180;20166;51.738;7.158;2024-01-30T11:50:30;102090.00;;;11.70
33877;BMP180;20166;51.738;7.158;2024-01-30T11:53:16;102090.00;;;11.80
33877;BMP180;20166;51.738;7.158;2024-01-30T11:56:06;102081.00;;;11.80
33877;BMP180;20166;51.738;7.158;2024-01-30T11:58:53;102094.00;;;11.80
33877;BMP180;20166;51.738;7.158;2024-01-30T12:01:39;102089.00;;;11.90
33877;BMP180;20166;51.738;7.158;2024-01-30T12:04:28;102081.00;;;11.80
33877;BMP180;20166;51.738;7.158;2024-01-30T12:07:15;102084.00;;;11.90
33877;BMP180;20166;51.738;7.158;2024-01-30T12:10:02;102093.00;;;12.00
33877;BMP180;20166;51.738;7.158;2024-01-30T12:12:50;102087.00;;;12.00
33877;BMP180;20166;51.738;7.158;2024-01-30T12:15:37;102076.00;;;12.00
33877;BMP180;20166;51.738;7.158;2024-01-30T12:18:23;102075.00;;;11.90
33877;BMP180;20166;51.738;7.158;2024-01-30T12:21:10;102085.00;;;11.90
33877;BMP180;20166;51.738;7.158;2024-01-30T12:23:57;102086.00;;;11.90
33877;BMP180;20166;51.738;7.158;2024-01-30T12:26:45;102090.00;;;11.80
33877;BMP180;20166;51.738;7.158;2024-01-30T12:29:32;102098.00;;;11.80
33877;BMP180;20166;51.738;7.158;2024-01-30T12:32:23;102098.00;;;11.80
33877;BMP180;20166;51.738;7.158;2024-01-30T12:35:10;102097.00;;;11.80
33877;BMP180;20166;51.738;7.158;2024-01-30T12:37:56;102101.00;;;11.80
33877;BMP180;20166;51.738;7.158;2024-01-30T12:40:44;102103.00;;;11.80
33877;BMP180;20166;51.738;7.158;2024-01-30T12:43:31;102102.00;;;11.80
33877;BMP180;20166;51.738;7.158;2024-01-30T12:46:27;102104.00;;;11.80
33877;BMP180;20166;51.738;7.158;2024-01-30T12:49:13;102099.00;;;11.90
33877;BMP180;20166;51.738;7.158;2024-01-30T12:52:00;102099.00;;;11.90
33877;BMP180;20166;51.738;7.158;2024-01-30T12:54:47;102085.00;;;11.90
33877;BMP180;20166;51.738;7.158;2024-01-30T12:57:34;102091.00;;;12.00
33877;BMP180;20166;51.738;7.158;2024-01-30T13:00:21;102087.00;;;11.90
33877;BMP180;20166;51.738;7.158;2024-01-30T13:03:07;102087.00;;;12.00
33877;BMP180;20166;51.738;7.158;2024-01-30T13:05:55;102090.00;;;12.10
33877;BMP180;20166;51.738;7.158;2024-01-30T13:08:42;102100.00;;;12.20
33877;BMP180;20166;51.738;7.158;2024-01-30T13:11:28;102095.00;;;12.20
33877;BMP180;20166;51.738;7.158;2024-01-30T13:14:16;102088.00;;;12.20
33877;BMP180;20166;51.738;7.158;2024-01-30T13:17:03;102096.00;;;12.10
33877;BMP180;20166;51.738;7.158;2024-01-30T13:19:49;102092.00;;;12.10
33877;BMP180;20166;51.738;7.158;2024-01-30T13:22:36;102096.00;;;12.10
33877;BMP180;20166;51.738;7.158;2024-01-30T13:25:23;102087.00;;;12.00
33877;BMP180;20166;51.738;7.158;2024-01-30T13:28:10;102103.00;;;12.10
33877;BMP180;20166;51.738;7.158;2024-01-30T13:30:58;102106.00;;;12.00
33877;BMP180;20166;51.738;7.158;2024-01-30T13:33:44;102110.00;;;12.00
33877;BMP180;20166;51.738;7.158;2024-01-30T13:36:31;102100.00;;;11.90
33877;BMP180;20166;51.738;7.158;2024-01-30T13:39:17;102104.00;;;12.00
33877;BMP180;20166;51.738;7.158;2024-01-30T13:42:07;102106.00;;;12.00
33877;BMP180;20166;51.738;7.158;2024-01-30T13:44:53;102100.00;;;12.00
33877;BMP180;20166;51.738;7.158;2024-01-30T13:47:41;102095.00;;;11.90
33877;BMP180;20166;51.738;7.158;2024-01-30T13:50:27;102100.00;;;12.00
33877;BMP180;20166;51.738;7.158;2024-01-30T13:53:14;102112.00;;;12.00
33877;BMP180;20166;51.738;7.158;2024-01-30T13:56:00;102105.00;;;12.10
33877;BMP180;20166;51.738;7.158;2024-01-30T13:58:48;102107.00;;;12.00
33877;BMP180;20166;51.738;7.158;2024-01-30T14:01:34;102105.00;;;12.00
33877;BMP180;20166;51.738;7.158;2024-01-30T14:04:22;102103.00;;;12.00
33877;BMP180;20166;51.738;7.158;2024-01-30T14:07:08;102110.00;;;11.90
33877;BMP180;20166;51.738;7.158;2024-01-30T14:09:54;102103.00;;;11.90
33877;BMP180;20166;51.738;7.158;2024-01-30T14:12:41;102111.00;;;11.90
33877;BMP180;20166;51.738;7.158;2024-01-30T14:15:28;102098.00;;;11.90
33877;BMP180;20166;51.738;7.158;2024-01-30T14:18:15;102104.00;;;11.90
33877;BMP180;20166;51.738;7.158;2024-01-30T14:21:02;102096.00;;;11.90
33877;BMP180;20166;51.738;7.158;2024-01-30T14:23:48;102098.00;;;12.00
33877;BMP180;20166;51.738;7.158;2024-01-30T14:26:34;102097.00;;;11.90
33877;BMP180;20166;51.738;7.158;2024-01-30T14:29:21;102099.00;;;11.90
33877;BMP180;20166;51.738;7.158;2024-01-30T14:32:08;102097.00;;;11.90
33877;BMP180;20166;51.738;7.158;2024-01-30T14:34:54;102097.00;;;11.90
33877;BMP180;20166;51.738;7.158;2024-01-30T14:37:42;102111.00;;;11.90
33877;BMP180;20166;51.738;7.158;2024-01-30T14:40:28;102115.00;;;12.00
33877;BMP180;20166;51.738;7.158;2024-01-30T14:43:15;102112.00;;;11.90
33877;BMP180;20166;51.738;7.158;2024-01-30T14:46:01;102131.00;;;11.90
33877;BMP180;20166;51.738;7.158;2024-01-30T14:48:48;102130.00;;;12.00
33877;BMP180;20166;51.738;7.158;2024-01-30T14:51:36;102128.00;;;12.00
33877;BMP180;20166;51.738;7.158;2024-01-30T14:54:24;102136.00;;;11.90
33877;BMP180;20166;51.738;7.158;2024-01-30T14:57:11;102137.00;;;12.00
33877;BMP180;20166;51.738;7.158;2024-01-30T14:59:59;102154.00;;;12.00
33877;BMP180;20166;51.738;7.158;2024-01-30T15:02:45;102156.00;;;12.00
33877;BMP180;20166;51.738;7.158;2024-01-30T15:05:32;102155.00;;;12.00
33877;BMP180;20166;51.738;7.158;2024-01-30T15:08:18;102160.00;;;12.00
33877;BMP180;20166;51.738;7.158;2024-01-30T15:11:07;102169.00;;;11.90
33877;BMP180;20166;51.738;7.158;2024-01-30T15:13:53;102167.00;;;11.90
33877;BMP180;20166;51.738;7.158;2024-01-30T15:16:39;102163.00;;;11.80
33877;BMP180;20166;51.738;7.158;2024-01-30T15:19:26;102171.00;;;11.80
33877;BMP180;20166;51.738;7.158;2024-01-30T15:22:12;102180.00;;;11.80
33877;BMP180;20166;51.738;7.158;2024-01-30T15:24:59;102179.00;;;11.80
33877;BMP180;20166;51.738;7.158;2024-01-30T15:27:47;102189.00;;;11.80
33877;BMP180;20166;51.738;7.158;2024-01-30T15:30:33;102187.00;;;11.70
33877;BMP180;20166;51.738;7.158;2024-01-30T15:33:19;102191.00;;;11.70
33877;BMP180;20166;51.738;7.158;2024-01-30T15:36:06;102198.00;;;11.60
33877;BMP180;20166;51.738;7.158;2024-01-30T15:38:52;102208.00;;;11.60
33877;BMP180;20166;51.738;7.158;2024-01-30T15:41:39;102207.00;;;11.50
33877;BMP180;20166;51.738;7.158;2024-01-30T15:44:26;102215.00;;;11.50
33877;BMP180;20166;51.738;7.158;2024-01-30T15:47:12;102210.00;;;11.40
33877;BMP180;20166;51.738;7.158;2024-01-30T15:49:59;102222.00;;;11.30
33877;BMP180;20166;51.738;7.158;2024-01-30T15:52:45;102228.00;;;11.20
33877;BMP180;20166;51.738;7.158;2024-01-30T15:55:31;102227.00;;;11.20
33877;BMP180;20166;51.738;7.158;2024-01-30T15:58:17;102244.00;;;11.10